Time;durP1;ratioP1;P1;durP2;ratioP2;P2;SDS_P1;SDS_P2;PMS_P1;PMS_P2;Temp;Humidity;BMP_temperature;BMP_pressure;BME280_temperature;BME280_humidity;BME280_pressure;Samples;Min_cycle;Max_cycle;Signal;HPM_P1;HPM_P2
2022/04/26 03:37:55;;;;;;;;;;;;;;;;;;5031332;28;19963;-73
2022/04/26 03:40:21;;;;;;;;;;;;;;;;;;5045352;28;19929;-73
2022/04/26 03:42:47;;;;;;;;;;;;;;;;;;5047387;28;19929;-74
2022/04/26 03:45:13;;;;;;;;;;;;;;;;;;5060149;28;19929;-74
2022/04/26 03:47:39;;;;;;;;;;;;;;;;;;5067662;28;19936;-72
2022/04/26 03:50:05;;;;;;;;;;;;;;;;;;5067435;28;19936;-74
2022/04/26 03:52:32;;;;;;;;;;;;;;;;;;5066820;28;19932;-73
2022/04/26 03:54:58;;;;;;;;;;;;;;;;;;5062040;28;19928;-74
2022/04/26 03:57:25;;;;;;;;;;;;;;;;;;5045403;28;19971;-73
2022/04/26 03:59:51;;;;;;;;;;;;;;;;;;5039612;28;19940;-73
2022/04/26 04:02:18;;;;;;;;;;;;;;;;;;5034730;28;19940;-73
2022/04/26 04:04:44;;;;;;;;;;;;;;;;;;5035479;28;19925;-73
2022/04/26 04:07:10;;;;;;;;;;;;;;;;;;5037541;28;20355;-74
2022/04/26 04:09:36;;;;;;;;;;;;;;;;;;5041028;28;19925;-73
2022/04/26 04:12:02;;;;;;;;;;;;;;;;;;5037049;28;19925;-71
2022/04/26 04:14:28;;;;;;;;;;;;;;;;;;5034213;28;19926;-71
2022/04/26 04:16:57;;;;;;;;;;;;;;;;;;5048424;28;19925;-74
2022/04/26 04:19:25;;;;;;;;;;;;;;;;;;5047573;28;20042;-74
2022/04/26 04:21:52;;;;;;;;;;;;;;;;;;5042728;28;19928;-72
2022/04/26 04:24:18;;;;;;;;;;;;;;;;;;5037992;28;20104;-72
2022/04/26 04:26:44;;;;;;;;;;;;;;;;;;5043290;28;19933;-74
2022/04/26 04:29:10;;;;;;;;;;;;;;;;;;5046398;28;19924;-73
2022/04/26 04:31:36;;;;;;;;;;;;;;;;;;5043206;28;19932;-74
2022/04/26 04:34:03;;;;;;;;;;;;;;;;;;5034723;28;20379;-74
2022/04/26 04:36:29;;;;;;;;;;;;;;;;;;5041110;28;19932;-72
2022/04/26 04:38:55;;;;;;;;;;;;;;;;;;5042708;28;19924;-72
2022/04/26 04:41:21;;;;;;;;;;;;;;;;;;5039413;28;19932;-73
2022/04/26 04:43:47;;;;;;;;;;;;;;;;;;5032100;28;19932;-73
2022/04/26 04:46:13;;;;;;;;;;;;;;;;;;5049553;28;19932;-73
2022/04/26 04:48:39;;;;;;;;;;;;;;;;;;5041419;28;19929;-73
2022/04/26 04:51:07;;;;;;;;;;;;;;;;;;5050884;28;19929;-73
2022/04/26 04:53:33;;;;;;;;;;;;;;;;;;5043392;28;20145;-72
2022/04/26 04:55:59;;;;;;;;;;;;;;;;;;5046298;28;19925;-72
2022/04/26 04:58:26;;;;;;;;;;;;;;;;;;5037746;28;20004;-73
2022/04/26 05:00:52;;;;;;;;;;;;;;;;;;5040387;28;19925;-73
2022/04/26 05:03:18;;;;;;;;;;;;;;;;;;5040796;28;19936;-73
2022/04/26 05:05:44;;;;;;;;;;;;;;;;;;5040424;28;19935;-73
2022/04/26 05:08:10;;;;;;;;;;;;;;;;;;5041336;28;19933;-73
2022/04/26 05:10:37;;;;;;;;;;;;;;;;;;5040073;28;19986;-73
2022/04/26 05:13:03;;;;;;;;;;;;;;;;;;5040788;28;19928;-73
2022/04/26 05:15:29;;;;;;;;;;;;;;;;;;5054025;28;20396;-73
2022/04/26 05:18:04;;;;;;;;;;;;;;;;;;4649018;28;10000803;-72
2022/04/26 05:20:30;;;;;;;;;;;;;;;;;;5050584;28;20406;-72
2022/04/26 05:25:40;;;;;;;;;;;;;;;;;;5054420;28;20022;-72
2022/04/26 05:28:06;;;;;;;;;;;;;;;;;;5049266;28;19925;-73
2022/04/26 05:30:32;;;;;;;;;;;;;;;;;;5057129;28;19924;-73
2022/04/26 05:32:58;;;;;;;;;;;;;;;;;;5039453;28;19952;-72
2022/04/26 05:35:24;;;;;;;;;;;;;;;;;;5052533;28;20395;-73
2022/04/26 05:37:51;;;;;;;;;;;;;;;;;;5049388;28;20434;-74
2022/04/26 05:40:17;;;;;;;;;;;;;;;;;;5049521;28;20200;-72
2022/04/26 05:42:43;;;;;;;;;;;;;;;;;;5048112;28;20431;-75
2022/04/26 05:45:09;;;;;;;;;;;;;;;;;;5049691;28;19925;-75
2022/04/26 05:47:35;;;;;;;;;;;;;;;;;;5050626;28;19928;-73
2022/04/26 05:50:02;;;;;;;;;;;;;;;;;;5042589;28;19929;-74
2022/04/26 05:52:28;;;;;;;;;;;;;;;;;;5057332;28;19924;-74
2022/04/26 05:54:54;;;;;;;;;;;;;;;;;;5050819;28;19936;-74
2022/04/26 05:57:20;;;;;;;;;;;;;;;;;;5060034;28;19928;-75
2022/04/26 05:59:46;;;;;;;;;;;;;;;;;;5047757;28;19936;-73
2022/04/26 06:02:12;;;;;;;;;;;;;;;;;;5052661;28;19928;-72
2022/04/26 06:04:38;;;;;;;;;;;;;;;;;;5052115;28;19959;-73
2022/04/26 06:07:05;;;;;;;;;;;;;;;;;;5054777;28;19964;-74
2022/04/26 06:09:31;;;;;;;;;;;;;;;;;;5049845;28;19940;-73
2022/04/26 06:11:58;;;;;;;;;;;;;;;;;;5049163;28;19934;-71
2022/04/26 06:14:24;;;;;;;;;;;;;;;;;;5052542;28;20886;-73
2022/04/26 06:16:50;;;;;;;;;;;;;;;;;;5056399;28;19936;-72
2022/04/26 06:19:16;;;;;;;;;;;;;;;;;;5047927;28;19929;-74
2022/04/26 06:21:42;;;;;;;;;;;;;;;;;;5054990;28;19929;-73
2022/04/26 06:24:08;;;;;;;;;;;;;;;;;;5038401;28;19929;-74
2022/04/26 06:26:34;;;;;;;;;;;;;;;;;;5057750;28;19929;-73
2022/04/26 06:29:00;;;;;;;;;;;;;;;;;;5047102;28;20433;-75
2022/04/26 06:31:27;;;;;;;;;;;;;;;;;;5060275;28;20371;-73
2022/04/26 06:33:53;;;;;;;;;;;;;;;;;;5062377;28;19938;-74
2022/04/26 06:36:19;;;;;;;;;;;;;;;;;;5067698;28;19931;-74
2022/04/26 06:38:45;;;;;;;;;;;;;;;;;;5049352;28;20392;-76
2022/04/26 06:41:11;;;;;;;;;;;;;;;;;;5045486;28;20319;-73
2022/04/26 06:43:38;;;;;;;;;;;;;;;;;;5043727;28;19951;-73
2022/04/26 06:46:05;;;;;;;;;;;;;;;;;;5040248;28;19925;-73
2022/04/26 06:48:31;;;;;;;;;;;;;;;;;;4701359;28;10000203;-72
2022/04/26 06:50:57;;;;;;;;;;;;;;;;;;5049828;28;19932;-73
2022/04/26 06:53:23;;;;;;;;;;;;;;;;;;5051181;28;19928;-74
2022/04/26 06:55:49;;;;;;;;;;;;;;;;;;5050920;28;19940;-72
2022/04/26 06:58:15;;;;;;;;;;;;;;;;;;5052284;28;19929;-73
2022/04/26 07:00:42;;;;;;;;;;;;;;;;;;5052335;28;19936;-73
2022/04/26 07:03:08;;;;;;;;;;;;;;;;;;5050117;28;19939;-73
2022/04/26 07:05:34;;;;;;;;;;;;;;;;;;5056505;28;19929;-74
2022/04/26 07:08:00;;;;;;;;;;;;;;;;;;5052479;28;19936;-77
2022/04/26 07:10:28;;;;;;;;;;;;;;;;;;5049966;28;20253;-74
2022/04/26 07:12:55;;;;;;;;;;;;;;;;;;5057100;28;19928;-73
2022/04/26 07:15:21;;;;;;;;;;;;;;;;;;5046743;28;19954;-75
2022/04/26 07:17:47;;;;;;;;;;;;;;;;;;5035786;28;19925;-73
2022/04/26 07:20:13;;;;;;;;;;;;;;;;;;5036713;28;20226;-75
2022/04/26 07:22:39;;;;;;;;;;;;;;;;;;5046768;28;19929;-74
2022/04/26 07:25:05;;;;;;;;;;;;;;;;;;5043712;28;19936;-74
2022/04/26 07:27:32;;;;;;;;;;;;;;;;;;5056193;28;19933;-73
2022/04/26 07:29:58;;;;;;;;;;;;;;;;;;5044904;28;19925;-74
2022/04/26 07:34:20;;;;;;;;;;;;;;;;;;5056225;28;19924;-74
2022/04/26 07:35:10;;;;;;;;;;;;;;;;;;5043009;28;19926;-75
2022/04/26 07:37:36;;;;;;;;;;;;;;;;;;5044125;28;20357;-74
2022/04/26 07:40:03;;;;;;;;;;;;;;;;;;5041414;28;19929;-73
2022/04/26 07:42:29;;;;;;;;;;;;;;;;;;5047015;28;19936;-74
2022/04/26 07:44:55;;;;;;;;;;;;;;;;;;5038239;28;19929;-73
2022/04/26 07:47:22;;;;;;;;;;;;;;;;;;5045590;28;19936;-74
2022/04/26 07:49:48;;;;;;;;;;;;;;;;;;5040632;28;19937;-74
2022/04/26 07:52:15;;;;;;;;;;;;;;;;;;5051639;28;19928;-74
2022/04/26 07:54:41;;;;;;;;;;;;;;;;;;5047990;28;19928;-73
2022/04/26 07:57:08;;;;;;;;;;;;;;;;;;5052298;28;20018;-72
2022/04/26 07:59:34;;;;;;;;;;;;;;;;;;5038902;28;19990;-75
2022/04/26 08:02:00;;;;;;;;;;;;;;;;;;5038913;28;19958;-76
2022/04/26 08:04:26;;;;;;;;;;;;;;;;;;5037220;28;20375;-74
2022/04/26 08:06:52;;;;;;;;;;;;;;;;;;5046900;28;19929;-75
2022/04/26 08:09:18;;;;;;;;;;;;;;;;;;5049180;28;19935;-74
2022/04/26 08:11:46;;;;;;;;;;;;;;;;;;5037940;28;20421;-75
2022/04/26 08:14:12;;;;;;;;;;;;;;;;;;5048235;28;19939;-74
2022/04/26 08:16:38;;;;;;;;;;;;;;;;;;5035871;28;19928;-74
2022/04/26 08:19:05;;;;;;;;;;;;;;;;;;5037085;28;19944;-75
2022/04/26 08:21:31;;;;;;;;;;;;;;;;;;5048460;28;19936;-74
2022/04/26 08:29:25;;;;;;;;;;;;;;;;;;5051246;28;20455;-75
2022/04/26 08:31:52;;;;;;;;;;;;;;;;;;5047463;28;19953;-75
2022/04/26 08:34:18;;;;;;;;;;;;;;;;;;5051708;28;19935;-75
2022/04/26 08:36:46;;;;;;;;;;;;;;;;;;5045696;28;20400;-75
2022/04/26 08:39:12;;;;;;;;;;;;;;;;;;5046766;28;20374;-74
2022/04/26 08:41:38;;;;;;;;;;;;;;;;;;5041024;28;20463;-75
2022/04/26 08:44:04;;;;;;;;;;;;;;;;;;5034166;28;19929;-76
2022/04/26 08:51:54;;;;;;;;;;;;;;;;;;5050133;28;20398;-75
2022/04/26 08:54:21;;;;;;;;;;;;;;;;;;5049543;28;20407;-77
2022/04/26 08:56:47;;;;;;;;;;;;;;;;;;5047178;28;19924;-74
2022/04/26 08:59:13;;;;;;;;;;;;;;;;;;5045719;28;20451;-76
2022/04/26 09:01:39;;;;;;;;;;;;;;;;;;5051370;28;19929;-76
2022/04/26 09:04:05;;;;;;;;;;;;;;;;;;5044917;28;19932;-76
2022/04/26 09:06:31;;;;;;;;;;;;;;;;;;5050221;28;19924;-74
2022/04/26 09:08:58;;;;;;;;;;;;;;;;;;5050460;28;19935;-74
2022/04/26 09:11:24;;;;;;;;;;;;;;;;;;5048848;28;19966;-74
2022/04/26 09:13:50;;;;;;;;;;;;;;;;;;5099784;22;20607;-71
2022/04/26 09:16:17;;;;;;;;;;;;;;;;;;5082815;28;20315;-71
2022/04/26 09:18:43;;;;;;;;;;;;;;;;;;5081139;28;19940;-71
2022/04/26 09:21:09;;;;;;;;;;;;;;;;;;5083240;28;19935;-70
2022/04/26 09:23:35;;;;;;;;;;;;;;;;;;5082319;28;19928;-71
2022/04/26 09:26:02;;;;;;;;;;;;;;;;;;5083465;28;19951;-71
2022/04/26 09:28:28;;;;;;;;;;;;;;;;;;5083880;28;19935;-72
2022/04/26 09:30:54;;;;;;;;;;;;;;;;;;5087759;28;20182;-71
2022/04/26 09:33:21;;;;;;;;;;;;;;;;;;5081108;28;20566;-72
2022/04/26 09:35:47;;;;;;;;;;;;;;;;;;5083757;28;20010;-71
2022/04/26 09:38:13;;;;;;;;;;;;;;;;;;5082759;28;20368;-72
2022/04/26 09:40:39;;;;;;;;;;;;;;;;;;5082939;28;20450;-72
2022/04/26 09:43:06;;;;;;;;;;;;;;;;;;5074340;28;20330;-72
2022/04/26 09:45:32;;;;;;;;;;;;;;;;;;5083291;28;20359;-71
2022/04/26 09:47:58;;;;;;;;;;;;;;;;;;5079664;28;19928;-71
2022/04/26 09:50:24;;;;;;;;;;;;;;;;;;5078340;28;19935;-72
2022/04/26 09:52:50;;;;;;;;;;;;;;;;;;5081377;28;19928;-71
2022/04/26 09:55:16;;;;;;;;;;;;;;;;;;5083113;28;19935;-72
2022/04/26 09:57:43;;;;;;;;;;;;;;;;;;5082466;28;19928;-74
2022/04/26 10:00:09;;;;;;;;;;;;;;;;;;5082881;28;19928;-74
2022/04/26 10:02:35;;;;;;;;;;;;;;;;;;5080889;28;19924;-72
2022/04/26 10:05:02;;;;;;;;;;;;;;;;;;5082606;28;20014;-73
2022/04/26 10:07:28;;;;;;;;;;;;;;;;;;5086232;28;19928;-73
2022/04/26 10:09:55;;;;;;;;;;;;;;;;;;5086480;28;19924;-72
2022/04/26 10:12:21;;;;;;;;;;;;;;;;;;5085322;28;19975;-72
2022/04/26 10:14:47;;;;;;;;;;;;;;;;;;5086964;28;19928;-73
2022/04/26 10:17:14;;;;;;;;;;;;;;;;;;5078462;28;19932;-75
2022/04/26 10:19:40;;;;;;;;;;;;;;;;;;5085421;28;20701;-73
2022/04/26 10:22:08;;;;;;;;;;;;;;;;;;5086604;28;19935;-73
2022/04/26 10:24:34;;;;;;;;;;;;;;;;;;5088417;28;20481;-73
2022/04/26 10:27:00;;;;;;;;;;;;;;;;;;5091755;28;20232;-72
2022/04/26 10:29:26;;;;;;;;;;;;;;;;;;5092434;28;19924;-73
2022/04/26 10:31:52;;;;;;;;;;;;;;;;;;5092877;28;19935;-72
2022/04/26 10:34:20;;;;;;;;;;;;;;;;;;5091304;28;19924;-75
2022/04/26 10:36:46;;;;;;;;;;;;;;;;;;5091656;28;19939;-73
2022/04/26 10:39:12;;;;;;;;;;;;;;;;;;5086519;28;19931;-72
2022/04/26 10:41:39;;;;;;;;;;;;;;;;;;5085178;28;19924;-72
2022/04/26 10:44:05;;;;;;;;;;;;;;;;;;5081178;28;20424;-72
2022/04/26 10:46:31;;;;;;;;;;;;;;;;;;5080347;28;19935;-72
2022/04/26 10:49:00;;;;;;;;;;;;;;;;;;5085812;28;19954;-73
2022/04/26 10:51:26;;;;;;;;;;;;;;;;;;4734265;28;9999708;-72
2022/04/26 10:53:52;;;;;;;;;;;;;;;;;;5085187;28;20345;-72
2022/04/26 10:56:18;;;;;;;;;;;;;;;;;;5085730;28;20298;-71
2022/04/26 10:58:44;;;;;;;;;;;;;;;;;;5085750;28;19961;-72
2022/04/26 11:01:10;;;;;;;;;;;;;;;;;;5085852;28;19928;-72
2022/04/26 11:03:37;;;;;;;;;;;;;;;;;;5083039;28;20019;-71
2022/04/26 11:06:05;;;;;;;;;;;;;;;;;;5087005;28;19936;-72
2022/04/26 11:08:31;;;;;;;;;;;;;;;;;;5086512;28;19925;-70
2022/04/26 11:11:07;;;;;;;;;;;;;;;;;;5086150;28;19928;-72
2022/04/26 11:13:37;;;;;;;;;;;;;;;;;;5082031;28;19943;-73
2022/04/26 11:16:03;;;;;;;;;;;;;;;;;;5084410;28;19928;-72
2022/04/26 11:18:29;;;;;;;;;;;;;;;;;;5083445;28;19928;-72
2022/04/26 11:20:55;;;;;;;;;;;;;;;;;;5082061;28;20415;-72
2022/04/26 11:28:49;;;;;;;;;;;;;;;;;;5081586;28;20192;-73
2022/04/26 11:31:16;;;;;;;;;;;;;;;;;;5088417;28;19967;-71
2022/04/26 11:33:42;;;;;;;;;;;;;;;;;;5083443;28;19928;-72
2022/04/26 11:36:08;;;;;;;;;;;;;;;;;;5085193;28;19928;-72
2022/04/26 11:38:34;;;;;;;;;;;;;;;;;;5084405;28;19936;-75
2022/04/26 11:41:01;;;;;;;;;;;;;;;;;;5086288;28;19935;-73
2022/04/26 11:43:27;;;;;;;;;;;;;;;;;;5084579;28;19958;-73
2022/04/26 11:45:53;;;;;;;;;;;;;;;;;;5084820;28;20362;-72
2022/04/26 11:48:19;;;;;;;;;;;;;;;;;;5084303;28;20303;-73
2022/04/26 11:50:45;;;;;;;;;;;;;;;;;;5085556;28;20409;-73
2022/04/26 11:53:11;;;;;;;;;;;;;;;;;;5087297;28;19936;-73
2022/04/26 11:55:38;;;;;;;;;;;;;;;;;;5087411;28;19934;-73
2022/04/26 11:58:04;;;;;;;;;;;;;;;;;;5088219;28;19928;-72
2022/04/26 12:00:30;;;;;;;;;;;;;;;;;;5087350;28;20310;-73
2022/04/26 12:02:57;;;;;;;;;;;;;;;;;;5082899;28;19934;-73
2022/04/26 12:05:23;;;;;;;;;;;;;;;;;;5085322;28;19928;-72
2022/04/26 12:07:50;;;;;;;;;;;;;;;;;;5089002;28;19935;-73
2022/04/26 12:10:17;;;;;;;;;;;;;;;;;;5086490;28;19930;-73
2022/04/26 12:12:43;;;;;;;;;;;;;;;;;;5084857;28;20485;-73
2022/04/26 12:15:09;;;;;;;;;;;;;;;;;;5084256;28;20437;-75
2022/04/26 12:17:35;;;;;;;;;;;;;;;;;;5078567;28;20306;-72
2022/04/26 12:20:01;;;;;;;;;;;;;;;;;;5081205;28;19947;-73
2022/04/26 12:22:28;;;;;;;;;;;;;;;;;;5085206;28;19928;-72
2022/04/26 12:24:54;;;;;;;;;;;;;;;;;;5085042;28;19974;-73
2022/04/26 12:27:22;;;;;;;;;;;;;;;;;;5084785;28;19932;-73
2022/04/26 12:29:48;;;;;;;;;;;;;;;;;;5081584;28;19928;-72
2022/04/26 12:32:14;;;;;;;;;;;;;;;;;;5084396;28;19932;-74
2022/04/26 12:34:41;;;;;;;;;;;;;;;;;;5082801;28;19928;-72
2022/04/26 12:37:08;;;;;;;;;;;;;;;;;;5085391;28;19928;-72
2022/04/26 12:39:34;;;;;;;;;;;;;;;;;;5084958;28;19928;-72
2022/04/26 12:42:02;;;;;;;;;;;;;;;;;;5084870;28;19939;-72
2022/04/26 12:44:28;;;;;;;;;;;;;;;;;;5081241;28;19927;-73
2022/04/26 12:52:22;;;;;;;;;;;;;;;;;;5080982;28;20318;-72
2022/04/26 12:54:48;;;;;;;;;;;;;;;;;;5085845;28;19928;-72
2022/04/26 12:57:14;;;;;;;;;;;;;;;;;;5085954;28;19932;-71
2022/04/26 12:59:41;;;;;;;;;;;;;;;;;;5083499;28;20425;-71
2022/04/26 13:02:07;;;;;;;;;;;;;;;;;;5085837;28;20006;-72
2022/04/26 13:04:33;;;;;;;;;;;;;;;;;;5082747;28;19971;-72
2022/04/26 13:07:00;;;;;;;;;;;;;;;;;;5085072;28;19928;-73
2022/04/26 13:09:26;;;;;;;;;;;;;;;;;;5082295;28;20306;-70
2022/04/26 13:11:53;;;;;;;;;;;;;;;;;;5083616;28;20529;-72
2022/04/26 13:14:19;;;;;;;;;;;;;;;;;;5083009;28;19924;-71
2022/04/26 13:16:45;;;;;;;;;;;;;;;;;;5077954;28;19928;-73
2022/04/26 13:19:11;;;;;;;;;;;;;;;;;;5085574;28;19924;-72
2022/04/26 13:21:38;;;;;;;;;;;;;;;;;;5086713;28;19935;-72
2022/04/26 13:24:04;;;;;;;;;;;;;;;;;;5087454;28;19935;-72
2022/04/26 13:26:30;;;;;;;;;;;;;;;;;;5085018;28;19928;-72
2022/04/26 13:28:56;;;;;;;;;;;;;;;;;;5086775;28;19924;-72
2022/04/26 13:31:23;;;;;;;;;;;;;;;;;;5084274;28;20470;-73
2022/04/26 13:33:49;;;;;;;;;;;;;;;;;;5079013;28;20038;-74
2022/04/26 13:36:15;;;;;;;;;;;;;;;;;;5086488;28;19932;-73
2022/04/26 13:38:42;;;;;;;;;;;;;;;;;;5085686;28;19932;-72
2022/04/26 13:41:08;;;;;;;;;;;;;;;;;;5085741;28;19961;-72
2022/04/26 13:43:34;;;;;;;;;;;;;;;;;;5080196;28;19928;-73
2022/04/26 13:46:00;;;;;;;;;;;;;;;;;;5087181;28;19932;-73
2022/04/26 13:48:26;;;;;;;;;;;;;;;;;;5084860;28;19936;-72
2022/04/26 13:50:52;;;;;;;;;;;;;;;;;;5082987;28;19935;-73
2022/04/26 13:53:18;;;;;;;;;;;;;;;;;;5083100;28;20095;-72
2022/04/26 13:55:45;;;;;;;;;;;;;;;;;;5083059;28;19939;-72
2022/04/26 13:58:11;;;;;;;;;;;;;;;;;;5086704;28;19924;-72
2022/04/26 14:00:37;;;;;;;;;;;;;;;;;;5077597;28;19928;-72
2022/04/26 14:03:03;;;;;;;;;;;;;;;;;;5077590;28;19967;-72
2022/04/26 14:05:30;;;;;;;;;;;;;;;;;;5087088;28;19928;-74
2022/04/26 14:07:56;;;;;;;;;;;;;;;;;;5089925;28;19995;-73
2022/04/26 14:10:22;;;;;;;;;;;;;;;;;;5084701;28;19935;-72
2022/04/26 14:12:48;;;;;;;;;;;;;;;;;;5085371;28;19928;-72
2022/04/26 14:23:27;;;;;;;;;;;;;;;;;;5089068;28;20379;-73
2022/04/26 14:25:53;;;;;;;;;;;;;;;;;;5089526;28;19928;-71
2022/04/26 14:28:19;;;;;;;;;;;;;;;;;;5088258;28;19928;-72
2022/04/26 14:30:45;;;;;;;;;;;;;;;;;;5085849;28;19940;-72
2022/04/26 14:33:13;;;;;;;;;;;;;;;;;;5087857;28;20347;-73
2022/04/26 14:35:39;;;;;;;;;;;;;;;;;;5090116;28;19979;-72
2022/04/26 14:38:06;;;;;;;;;;;;;;;;;;5089205;28;19982;-72
2022/04/26 14:40:33;;;;;;;;;;;;;;;;;;5090747;28;19978;-72
2022/04/26 14:42:59;;;;;;;;;;;;;;;;;;5084695;28;20015;-71
2022/04/26 14:45:25;;;;;;;;;;;;;;;;;;5089839;28;20249;-72
2022/04/26 14:47:51;;;;;;;;;;;;;;;;;;5083335;28;20265;-73
2022/04/26 14:50:18;;;;;;;;;;;;;;;;;;5086515;28;20208;-74
2022/04/26 14:52:44;;;;;;;;;;;;;;;;;;5088528;28;19928;-72
2022/04/26 14:55:10;;;;;;;;;;;;;;;;;;5091084;28;19928;-72
2022/04/26 14:57:37;;;;;;;;;;;;;;;;;;5092067;28;19928;-74
2022/04/26 15:00:03;;;;;;;;;;;;;;;;;;5090918;28;20099;-74
2022/04/26 15:02:36;;;;;;;;;;;;;;;;;;5090524;28;19935;-72
2022/04/26 15:05:02;;;;;;;;;;;;;;;;;;5085329;28;19928;-74
2022/04/26 15:09:42;;;;;;;;;;;;;;;;;;5090167;28;19932;-74
2022/04/26 15:10:14;;;;;;;;;;;;;;;;;;5088291;28;19995;-74
2022/04/26 15:17:59;;;;;;;;;;;;;;;;;;5081353;28;19947;-77
2022/04/26 15:20:26;;;;;;;;;;;;;;;;;;5081769;28;20366;-77
2022/04/26 15:22:52;;;;;;;;;;;;;;;;;;5082823;28;19924;-77
2022/04/26 15:25:19;;;;;;;;;;;;;;;;;;5063186;28;19935;-78
2022/04/26 15:27:45;;;;;;;;;;;;;;;;;;5058553;28;19924;-77
2022/04/26 15:30:11;;;;;;;;;;;;;;;;;;5060908;28;20023;-77
2022/04/26 15:32:37;;;;;;;;;;;;;;;;;;5060066;28;19924;-78
2022/04/26 15:35:03;;;;;;;;;;;;;;;;;;5068777;28;19925;-75
2022/04/26 15:37:30;;;;;;;;;;;;;;;;;;5058941;28;19928;-76
2022/04/26 15:39:56;;;;;;;;;;;;;;;;;;5062863;28;19928;-79
2022/04/26 15:42:22;;;;;;;;;;;;;;;;;;5066165;28;20308;-78
2022/04/26 15:44:48;;;;;;;;;;;;;;;;;;5069681;28;20400;-79
2022/04/26 15:47:15;;;;;;;;;;;;;;;;;;5065628;28;19936;-79
2022/04/26 15:49:41;;;;;;;;;;;;;;;;;;5061983;28;19943;-79
2022/04/26 15:52:08;;;;;;;;;;;;;;;;;;5062952;28;20016;-77
2022/04/26 15:54:34;;;;;;;;;;;;;;;;;;5059080;28;20039;-78
2022/04/26 15:57:00;;;;;;;;;;;;;;;;;;5069292;28;20350;-80
2022/04/26 15:59:26;;;;;;;;;;;;;;;;;;5066599;28;19928;-78
2022/04/26 16:01:52;;;;;;;;;;;;;;;;;;5069103;28;19929;-79
2022/04/26 16:04:19;;;;;;;;;;;;;;;;;;5059622;28;19986;-79
2022/04/26 16:06:45;;;;;;;;;;;;;;;;;;5069725;28;19993;-79
2022/04/26 16:22:46;;;;;;;;;;;;;;;;;;5052639;28;20430;-78
2022/04/26 16:25:13;;;;;;;;;;;;;;;;;;5060311;28;19924;-79
2022/04/26 16:27:40;;;;;;;;;;;;;;;;;;5063221;28;19928;-77
2022/04/26 16:30:06;;;;;;;;;;;;;;;;;;5060463;28;20398;-77
2022/04/26 16:32:32;;;;;;;;;;;;;;;;;;5061603;28;20466;-78
2022/04/26 16:34:58;;;;;;;;;;;;;;;;;;5063319;28;19932;-78
2022/04/26 16:37:24;;;;;;;;;;;;;;;;;;5066105;28;19929;-76
2022/04/26 16:39:51;;;;;;;;;;;;;;;;;;5064970;28;19928;-78
2022/04/26 16:42:17;;;;;;;;;;;;;;;;;;5064581;28;20307;-78
2022/04/26 16:44:43;;;;;;;;;;;;;;;;;;5064425;28;20007;-79
2022/04/26 16:47:10;;;;;;;;;;;;;;;;;;5060114;28;20613;-77
2022/04/26 16:49:36;;;;;;;;;;;;;;;;;;5063003;28;19936;-77
2022/04/26 16:52:02;;;;;;;;;;;;;;;;;;5060223;28;19936;-77
2022/04/26 16:54:28;;;;;;;;;;;;;;;;;;5063221;28;19924;-78
2022/04/26 16:56:54;;;;;;;;;;;;;;;;;;5065888;28;19968;-77
2022/04/26 16:59:22;;;;;;;;;;;;;;;;;;5059906;28;19944;-77
2022/04/26 17:01:49;;;;;;;;;;;;;;;;;;5057012;28;19932;-78
2022/04/26 17:04:15;;;;;;;;;;;;;;;;;;5061038;28;20465;-79
2022/04/26 17:06:41;;;;;;;;;;;;;;;;;;5052506;28;19951;-77
2022/04/26 17:09:08;;;;;;;;;;;;;;;;;;5062885;28;19935;-78
2022/04/26 17:11:43;;;;;;;;;;;;;;;;;;5057758;28;19932;-76
2022/04/26 17:14:09;;;;;;;;;;;;;;;;;;5062730;28;20013;-78
2022/04/26 17:16:35;;;;;;;;;;;;;;;;;;5053191;28;19929;-78
2022/04/26 17:19:01;;;;;;;;;;;;;;;;;;5053225;28;19943;-78
2022/04/26 17:21:28;;;;;;;;;;;;;;;;;;5080249;28;20015;-75
2022/04/26 17:23:54;;;;;;;;;;;;;;;;;;5077612;28;19928;-78
2022/04/26 17:26:20;;;;;;;;;;;;;;;;;;5062336;28;20022;-77
2022/04/26 17:28:46;;;;;;;;;;;;;;;;;;5060345;28;19936;-78
2022/04/26 17:31:14;;;;;;;;;;;;;;;;;;5057479;28;19939;-78
2022/04/26 17:33:40;;;;;;;;;;;;;;;;;;5058964;28;19929;-79
2022/04/26 17:36:06;;;;;;;;;;;;;;;;;;5067174;28;20162;-77
2022/04/26 17:38:33;;;;;;;;;;;;;;;;;;5066204;28;19980;-77
2022/04/26 17:40:59;;;;;;;;;;;;;;;;;;5066427;28;19989;-75
2022/04/26 17:43:25;;;;;;;;;;;;;;;;;;5064838;28;20375;-78
2022/04/26 17:45:51;;;;;;;;;;;;;;;;;;5065101;28;19999;-78
2022/04/26 17:48:18;;;;;;;;;;;;;;;;;;5062297;28;19935;-78
2022/04/26 17:50:44;;;;;;;;;;;;;;;;;;5067749;28;19935;-78
2022/04/26 17:58:38;;;;;;;;;;;;;;;;;;5066125;28;19923;-78
2022/04/26 18:01:05;;;;;;;;;;;;;;;;;;5075806;28;20012;-75
2022/04/26 18:03:31;;;;;;;;;;;;;;;;;;5069078;28;19928;-76
2022/04/26 18:05:57;;;;;;;;;;;;;;;;;;5078163;28;19929;-78
2022/04/26 18:08:25;;;;;;;;;;;;;;;;;;5067962;28;19937;-77
2022/04/26 18:10:51;;;;;;;;;;;;;;;;;;5067332;28;19932;-76
2022/04/26 18:13:17;;;;;;;;;;;;;;;;;;5068639;28;19939;-77
2022/04/26 18:15:44;;;;;;;;;;;;;;;;;;5080266;28;19939;-75
2022/04/26 18:18:10;;;;;;;;;;;;;;;;;;5059591;28;20466;-77
2022/04/26 18:20:36;;;;;;;;;;;;;;;;;;5063578;28;19928;-77
2022/04/26 18:23:02;;;;;;;;;;;;;;;;;;5071730;28;19928;-77
2022/04/26 18:28:08;;;;;;;;;;;;;;;;;;5058297;28;19982;-77
2022/04/26 18:30:34;;;;;;;;;;;;;;;;;;5072312;28;20031;-76
2022/04/26 18:33:01;;;;;;;;;;;;;;;;;;5070609;28;19932;-77
2022/04/26 18:35:27;;;;;;;;;;;;;;;;;;5079665;28;19971;-77
2022/04/26 18:37:53;;;;;;;;;;;;;;;;;;5077290;28;19932;-78
2022/04/26 18:40:20;;;;;;;;;;;;;;;;;;5077149;28;19974;-77
2022/04/26 18:42:48;;;;;;;;;;;;;;;;;;5076209;28;20024;-77
2022/04/26 18:45:14;;;;;;;;;;;;;;;;;;5068272;28;19924;-78
2022/04/26 18:47:40;;;;;;;;;;;;;;;;;;5076218;28;19960;-78
2022/04/26 18:50:06;;;;;;;;;;;;;;;;;;5080072;28;19946;-78
2022/04/26 18:52:36;;;;;;;;;;;;;;;;;;5064474;28;19936;-78
2022/04/26 18:55:02;;;;;;;;;;;;;;;;;;5085251;28;19999;-78
2022/04/26 18:57:28;;;;;;;;;;;;;;;;;;5079846;28;19932;-79
2022/04/26 18:59:55;;;;;;;;;;;;;;;;;;5073990;28;19934;-78
2022/04/26 19:02:21;;;;;;;;;;;;;;;;;;5069706;28;19959;-77
2022/04/26 19:04:47;;;;;;;;;;;;;;;;;;5071440;28;19939;-79
2022/04/26 19:07:13;;;;;;;;;;;;;;;;;;5070092;28;19924;-77
2022/04/26 19:12:15;;;;;;;;;;;;;;;;;;5062701;28;19979;-77
2022/04/26 19:12:24;;;;;;;;;;;;;;;;;;5057644;28;20562;-75
2022/04/26 19:14:51;;;;;;;;;;;;;;;;;;5067160;28;19935;-77
2022/04/26 19:17:19;;;;;;;;;;;;;;;;;;5064318;28;19940;-78
2022/04/26 19:19:45;;;;;;;;;;;;;;;;;;5055748;28;20470;-77
2022/04/26 19:22:12;;;;;;;;;;;;;;;;;;5066244;28;20555;-77
2022/04/26 19:24:38;;;;;;;;;;;;;;;;;;5063851;28;20499;-77
2022/04/26 19:27:04;;;;;;;;;;;;;;;;;;5066213;28;20568;-75
2022/04/26 19:29:31;;;;;;;;;;;;;;;;;;5065575;28;19970;-76
2022/04/26 19:31:58;;;;;;;;;;;;;;;;;;5065948;28;19929;-77
2022/04/26 19:34:24;;;;;;;;;;;;;;;;;;5065213;28;20606;-77
2022/04/26 19:36:50;;;;;;;;;;;;;;;;;;5066954;28;19935;-76
2022/04/26 19:39:17;;;;;;;;;;;;;;;;;;5063192;28;19935;-73
2022/04/26 19:41:44;;;;;;;;;;;;;;;;;;5065579;28;19985;-77
2022/04/26 19:44:10;;;;;;;;;;;;;;;;;;5058058;28;19924;-75
2022/04/26 19:46:36;;;;;;;;;;;;;;;;;;5062210;28;19936;-75
2022/04/26 19:49:02;;;;;;;;;;;;;;;;;;5064755;28;19935;-75
2022/04/26 19:51:29;;;;;;;;;;;;;;;;;;5065791;28;19924;-75
2022/04/26 19:53:56;;;;;;;;;;;;;;;;;;5066254;28;20092;-77
2022/04/26 19:56:22;;;;;;;;;;;;;;;;;;5065162;28;19971;-75
2022/04/26 19:58:48;;;;;;;;;;;;;;;;;;5064028;28;20053;-77
2022/04/26 20:01:14;;;;;;;;;;;;;;;;;;5065888;28;19928;-75
2022/04/26 20:03:40;;;;;;;;;;;;;;;;;;5063277;28;19929;-74
2022/04/26 20:06:06;;;;;;;;;;;;;;;;;;5065208;28;19938;-76
2022/04/26 20:08:33;;;;;;;;;;;;;;;;;;5061742;28;20016;-76
2022/04/26 20:11:00;;;;;;;;;;;;;;;;;;5079941;28;20104;-77
2022/04/26 20:13:27;;;;;;;;;;;;;;;;;;5059087;28;19928;-73
2022/04/26 20:15:53;;;;;;;;;;;;;;;;;;5065899;28;20701;-77
2022/04/26 20:18:19;;;;;;;;;;;;;;;;;;5067750;28;19924;-78
2022/04/26 20:20:45;;;;;;;;;;;;;;;;;;5077022;28;20031;-76
2022/04/26 20:23:11;;;;;;;;;;;;;;;;;;4719699;28;10000519;-79
2022/04/26 20:31:02;;;;;;;;;;;;;;;;;;5069241;28;19996;-79
2022/04/26 20:33:28;;;;;;;;;;;;;;;;;;5076578;28;19924;-77
2022/04/26 20:35:54;;;;;;;;;;;;;;;;;;5075527;28;19950;-80
2022/04/26 20:38:21;;;;;;;;;;;;;;;;;;5068997;28;19940;-77
2022/04/26 20:40:47;;;;;;;;;;;;;;;;;;5066483;28;19928;-78
2022/04/26 20:43:13;;;;;;;;;;;;;;;;;;5069818;28;19927;-79
2022/04/26 20:45:39;;;;;;;;;;;;;;;;;;5063402;28;20668;-78
2022/04/26 20:48:05;;;;;;;;;;;;;;;;;;5071269;28;20247;-77
2022/04/26 20:50:31;;;;;;;;;;;;;;;;;;5069336;28;20299;-76
2022/04/26 20:52:58;;;;;;;;;;;;;;;;;;5071304;28;20397;-76
2022/04/26 20:55:24;;;;;;;;;;;;;;;;;;5058857;28;19960;-74
2022/04/26 20:57:50;;;;;;;;;;;;;;;;;;5070551;28;19928;-77
2022/04/26 21:00:16;;;;;;;;;;;;;;;;;;5067544;28;19924;-75
2022/04/26 21:02:42;;;;;;;;;;;;;;;;;;5072490;28;20213;-77
2022/04/26 21:05:08;;;;;;;;;;;;;;;;;;5068228;28;19925;-76
2022/04/26 21:07:34;;;;;;;;;;;;;;;;;;5069840;28;19928;-77
2022/04/26 21:10:01;;;;;;;;;;;;;;;;;;5068582;28;19925;-76
2022/04/26 21:12:27;;;;;;;;;;;;;;;;;;5064412;28;19968;-77
2022/04/26 21:14:53;;;;;;;;;;;;;;;;;;5101397;22;19927;-71
2022/04/26 21:17:19;;;;;;;;;;;;;;;;;;5076128;28;19924;-72
2022/04/26 21:19:46;;;;;;;;;;;;;;;;;;5075678;28;20530;-72